Time,TemperatureF,DewpointF,PressureIn,WindDirection,WindDirectionDegrees,WindSpeedMPH,WindSpeedGustMPH,Humidity,HourlyPrecipIn,Conditions,Clouds,dailyrainin,SoftwareType,DateUTC
2016-12-08 00:00:00,35.2,24.5,0.00,WSW,245,7.6,21.8,65,0.00,,---,0.00,VWS V14.01,2016-12-08 05:00:00,
2016-12-08 00:05:00,34.9,24.3,0.00,SW,222,4.5,21.8,65,0.00,,---,0.00,VWS V14.01,2016-12-08 05:05:00,
2016-12-08 00:10:00,34.5,23.9,0.00,WSW,249,6.2,21.8,65,0.00,,---,0.00,VWS V14.01,2016-12-08 05:10:00,
2016-12-08 00:15:00,34.7,24.1,0.00,SW,232,3.7,21.8,65,0.00,,---,0.00,VWS V14.01,2016-12-08 05:15:00,
2016-12-08 00:20:00,34.8,24.4,0.00,WSW,242,7.1,21.8,65,0.00,,---,0.00,VWS V14.01,2016-12-08 05:20:00,
2016-12-08 00:26:00,34.7,24.0,0.00,WSW,246,14.9,21.8,65,0.00,,---,0.00,VWS V14.01,2016-12-08 05:26:00,
2016-12-08 00:31:00,34.5,23.6,0.00,SW,214,9.5,15.7,64,0.00,,---,0.00,VWS V14.01,2016-12-08 05:31:00,
2016-12-08 00:36:00,34.9,24.0,0.00,WSW,239,6.9,15.8,64,0.00,,---,0.00,VWS V14.01,2016-12-08 05:36:00,
2016-12-08 00:41:00,35.2,24.4,0.00,South,187,1.5,15.8,64,0.00,,---,0.00,VWS V14.01,2016-12-08 05:41:00,
2016-12-08 00:46:00,34.9,24.2,0.00,SW,225,6.0,15.8,64,0.00,,---,0.00,VWS V14.01,2016-12-08 05:46:00,
2016-12-08 00:51:00,34.8,24.1,0.00,SW,235,9.9,15.8,65,0.00,,---,0.00,VWS V14.01,2016-12-08 05:51:00,
2016-12-08 00:56:00,35.1,24.4,0.00,WSW,238,5.6,15.8,65,0.00,,---,0.00,VWS V14.01,2016-12-08 05:56:00,
2016-12-08 01:01:00,34.7,24.0,0.00,SW,222,6.2,17.1,65,0.00,,---,0.00,VWS V14.01,2016-12-08 06:01:00,
2016-12-08 01:06:00,34.7,24.1,0.00,SW,225,8.2,17.1,65,0.00,,---,0.00,VWS V14.01,2016-12-08 06:06:00,
2016-12-08 01:11:00,34.7,24.1,0.00,SSW,211,5.2,17.1,65,0.00,,---,0.00,VWS V14.01,2016-12-08 06:11:00,
2016-12-08 01:16:00,34.8,24.3,0.00,SW,224,4.8,17.1,65,0.00,,---,0.00,VWS V14.01,2016-12-08 06:16:00,
2016-12-08 01:21:00,35.1,24.2,0.00,WSW,249,6.3,17.1,64,0.00,,---,0.00,VWS V14.01,2016-12-08 06:21:00,
2016-12-08 01:26:00,34.7,23.8,0.00,West,260,5.4,6.5,64,0.00,,---,0.00,VWS V14.01,2016-12-08 06:26:00,
2016-12-08 01:31:00,34.6,23.8,0.00,SW,218,1.7,13.6,64,0.00,,---,0.00,VWS V14.01,2016-12-08 06:31:00,
2016-12-08 01:37:00,34.8,23.9,0.00,WNW,284,5.6,13.6,64,0.00,,---,0.00,VWS V14.01,2016-12-08 06:37:00,
2016-12-08 01:42:00,34.5,23.5,0.00,WSW,242,8.2,13.6,64,0.00,,---,0.00,VWS V14.01,2016-12-08 06:42:00,
2016-12-08 01:47:00,34.6,23.7,0.00,West,267,6.3,13.6,64,0.00,,---,0.00,VWS V14.01,2016-12-08 06:47:00,
2016-12-08 01:52:00,34.6,24.0,0.00,WSW,240,7.5,13.6,65,0.00,,---,0.00,VWS V14.01,2016-12-08 06:52:00,
2016-12-08 01:57:00,34.5,23.6,0.00,SW,233,9.7,13.6,64,0.00,,---,0.00,VWS V14.01,2016-12-08 06:57:00,
2016-12-08 02:02:00,34.7,23.8,0.00,WSW,245,5.8,13.6,64,0.00,,---,0.00,VWS V14.01,2016-12-08 07:02:00,
2016-12-08 02:07:00,34.7,24.0,0.00,SSW,212,6.2,13.6,64,0.00,,---,0.00,VWS V14.01,2016-12-08 07:07:00,
2016-12-08 02:12:00,34.5,23.8,0.00,SW,229,7.1,13.6,65,0.00,,---,0.00,VWS V14.01,2016-12-08 07:12:00,
2016-12-08 02:17:00,34.5,23.9,0.00,South,181,0.0,13.6,65,0.00,,---,0.00,VWS V14.01,2016-12-08 07:17:00,
2016-12-08 02:22:00,34.2,23.6,0.00,WSW,250,2.8,14.0,65,0.00,,---,0.00,VWS V14.01,2016-12-08 07:22:00,
2016-12-08 02:27:00,34.1,23.6,0.00,SW,228,6.0,6.5,65,0.00,,---,0.00,VWS V14.01,2016-12-08 07:27:00,
2016-12-08 02:32:00,34.4,24.0,0.00,SW,226,6.0,10.6,65,0.00,,---,0.00,VWS V14.01,2016-12-08 07:32:00,
2016-12-08 02:37:00,34.4,24.1,0.00,WSW,245,8.0,10.6,66,0.00,,---,0.00,VWS V14.01,2016-12-08 07:37:00,
2016-12-08 02:43:00,34.1,23.7,0.00,South,183,0.7,10.6,65,0.00,,---,0.00,VWS V14.01,2016-12-08 07:43:00,
2016-12-08 02:48:00,34.3,23.8,0.00,SW,233,4.1,10.6,65,0.00,,---,0.00,VWS V14.01,2016-12-08 07:48:00,
2016-12-08 02:53:00,34.4,23.8,0.00,WSW,240,8.2,12.9,65,0.00,,---,0.00,VWS V14.01,2016-12-08 07:53:00,
2016-12-08 02:58:00,34.3,23.7,0.00,SW,224,7.6,12.9,65,0.00,,---,0.00,VWS V14.01,2016-12-08 07:58:00,
2016-12-08 03:03:00,33.6,23.0,0.00,WNW,283,5.8,15.5,65,0.00,,---,0.00,VWS V14.01,2016-12-08 08:03:00,
2016-12-08 03:08:00,33.9,23.4,0.00,WSW,255,9.7,15.5,65,0.00,,---,0.00,VWS V14.01,2016-12-08 08:08:00,
2016-12-08 03:13:00,33.5,23.0,0.00,WSW,240,0.0,15.5,65,0.00,,---,0.00,VWS V14.01,2016-12-08 08:13:00,
2016-12-08 03:18:00,33.8,23.1,0.00,WSW,246,6.3,17.3,64,0.00,,---,0.00,VWS V14.01,2016-12-08 08:18:00,
2016-12-08 03:23:00,33.5,22.9,0.00,SSW,210,10.3,17.3,65,0.00,,---,0.00,VWS V14.01,2016-12-08 08:23:00,
2016-12-08 03:28:00,33.7,23.4,0.00,NW,305,4.5,18.3,65,0.00,,---,0.00,VWS V14.01,2016-12-08 08:28:00,
2016-12-08 03:33:00,33.5,23.1,0.00,WSW,239,11.0,18.3,65,0.00,,---,0.00,VWS V14.01,2016-12-08 08:33:00,
2016-12-08 03:38:00,33.6,23.0,0.00,WSW,256,13.0,18.3,65,0.00,,---,0.00,VWS V14.01,2016-12-08 08:38:00,
2016-12-08 03:44:00,33.5,23.1,0.00,SW,232,4.7,18.3,65,0.00,,---,0.00,VWS V14.01,2016-12-08 08:44:00,
2016-12-08 03:49:00,33.2,22.5,0.00,WSW,250,13.6,18.3,64,0.00,,---,0.00,VWS V14.01,2016-12-08 08:49:00,
2016-12-08 03:54:00,33.0,22.7,0.00,West,259,7.3,18.3,65,0.00,,---,0.00,VWS V14.01,2016-12-08 08:54:00,
2016-12-08 03:59:00,32.9,22.6,0.00,WSW,257,3.7,18.5,66,0.00,,---,0.00,VWS V14.01,2016-12-08 08:59:00,
2016-12-08 04:04:00,32.9,22.6,0.00,West,270,4.8,18.5,66,0.00,,---,0.00,VWS V14.01,2016-12-08 09:04:00,
2016-12-08 04:09:00,32.8,22.2,0.00,SW,224,8.2,19.9,65,0.00,,---,0.00,VWS V14.01,2016-12-08 09:09:00,
2016-12-08 04:14:00,32.5,22.2,0.00,WSW,253,5.6,19.9,65,0.00,,---,0.00,VWS V14.01,2016-12-08 09:14:00,
2016-12-08 04:19:00,32.9,22.5,0.00,WSW,240,7.6,19.9,65,0.00,,---,0.00,VWS V14.01,2016-12-08 09:19:00,
2016-12-08 04:24:00,32.5,22.5,0.00,SSW,208,4.8,19.9,66,0.00,,---,0.00,VWS V14.01,2016-12-08 09:24:00,
2016-12-08 04:29:00,32.2,22.1,0.00,SW,225,10.4,11.0,66,0.00,,---,0.00,VWS V14.01,2016-12-08 09:29:00,
2016-12-08 04:34:00,32.1,22.1,0.00,SSW,210,5.4,11.6,66,0.00,,---,0.00,VWS V14.01,2016-12-08 09:34:00,
2016-12-08 04:39:00,32.3,22.4,0.00,SSW,207,5.8,11.6,66,0.00,,---,0.00,VWS V14.01,2016-12-08 09:39:00,
2016-12-08 04:44:00,32.5,22.6,0.00,SW,215,6.0,14.7,66,0.00,,---,0.00,VWS V14.01,2016-12-08 09:44:00,
2016-12-08 04:49:00,32.2,22.3,0.00,WSW,250,2.4,14.7,66,0.00,,---,0.00,VWS V14.01,2016-12-08 09:49:00,
2016-12-08 04:54:00,32.0,22.1,0.00,WSW,238,6.0,14.7,66,0.00,,---,0.00,VWS V14.01,2016-12-08 09:54:00,
2016-12-08 05:00:00,32.3,22.6,0.00,SW,226,12.3,14.7,67,0.00,,---,0.00,VWS V14.01,2016-12-08 10:00:00,
2016-12-08 05:05:00,32.0,22.4,0.00,SSW,212,0.0,14.7,67,0.00,,---,0.00,VWS V14.01,2016-12-08 10:05:00,
2016-12-08 05:10:00,32.0,22.4,0.00,SW,215,0.0,14.7,67,0.00,,---,0.00,VWS V14.01,2016-12-08 10:10:00,
2016-12-08 05:15:00,31.5,22.0,0.00,SW,235,4.8,14.7,68,0.00,,---,0.00,VWS V14.01,2016-12-08 10:15:00,
2016-12-08 05:20:00,31.9,22.3,0.00,SW,214,0.0,14.7,67,0.00,,---,0.00,VWS V14.01,2016-12-08 10:20:00,
2016-12-08 05:25:00,31.7,22.2,0.00,SW,214,0.0,14.7,68,0.00,,---,0.00,VWS V14.01,2016-12-08 10:25:00,
2016-12-08 05:30:00,31.6,22.2,0.00,SW,218,1.5,7.8,68,0.00,,---,0.00,VWS V14.01,2016-12-08 10:30:00,
2016-12-08 05:35:00,31.5,22.2,0.00,South,174,0.0,7.8,68,0.00,,---,0.00,VWS V14.01,2016-12-08 10:35:00,
2016-12-08 05:40:00,31.7,22.5,0.00,SSW,201,6.7,8.8,68,0.00,,---,0.00,VWS V14.01,2016-12-08 10:40:00,
2016-12-08 05:45:00,31.4,22.2,0.00,South,172,0.0,8.8,68,0.00,,---,0.00,VWS V14.01,2016-12-08 10:45:00,
2016-12-08 05:50:00,31.6,22.5,0.00,South,172,0.0,8.8,69,0.00,,---,0.00,VWS V14.01,2016-12-08 10:50:00,
2016-12-08 05:55:00,31.8,22.9,0.00,South,172,0.0,8.8,69,0.00,,---,0.00,VWS V14.01,2016-12-08 10:55:00,
2016-12-08 06:00:00,31.2,22.4,0.00,South,172,0.0,8.8,70,0.00,,---,0.00,VWS V14.01,2016-12-08 11:00:00,
2016-12-08 06:05:00,31.3,22.5,0.00,South,172,0.0,8.8,70,0.00,,---,0.00,VWS V14.01,2016-12-08 11:05:00,
2016-12-08 06:10:00,31.2,22.5,0.00,South,190,3.7,8.8,70,0.00,,---,0.00,VWS V14.01,2016-12-08 11:10:00,
2016-12-08 06:16:00,30.9,22.2,0.00,South,188,2.6,9.5,70,0.00,,---,0.00,VWS V14.01,2016-12-08 11:16:00,
2016-12-08 06:21:00,31.0,22.3,0.00,SSE,167,0.9,9.5,70,0.00,,---,0.00,VWS V14.01,2016-12-08 11:21:00,
2016-12-08 06:26:00,30.9,22.2,0.00,South,190,4.5,9.7,70,0.00,,---,0.00,VWS V14.01,2016-12-08 11:26:00,
2016-12-08 06:31:00,30.7,22.1,0.00,SW,225,3.2,9.3,70,0.00,,---,0.00,VWS V14.01,2016-12-08 11:31:00,
2016-12-08 06:36:00,30.3,21.6,0.00,South,191,2.1,11.2,70,0.00,,---,0.00,VWS V14.01,2016-12-08 11:36:00,
2016-12-08 06:41:00,30.7,21.9,0.00,SW,214,14.9,15.1,70,0.00,,---,0.00,VWS V14.01,2016-12-08 11:41:00,
2016-12-08 06:46:00,30.6,21.8,0.00,SW,215,6.3,15.1,69,0.00,,---,0.00,VWS V14.01,2016-12-08 11:46:00,
2016-12-08 06:51:00,30.8,22.0,0.00,SW,217,7.3,15.1,69,0.00,,---,0.00,VWS V14.01,2016-12-08 11:51:00,
2016-12-08 06:56:00,30.9,22.0,0.00,SSW,207,0.0,15.1,69,0.00,,---,0.00,VWS V14.01,2016-12-08 11:56:00,
2016-12-08 07:01:00,30.7,21.9,0.00,SW,218,8.6,15.1,69,0.00,,---,0.00,VWS V14.01,2016-12-08 12:01:00,
2016-12-08 07:06:00,30.5,21.8,0.00,SSW,207,6.7,16.4,70,0.00,,---,0.00,VWS V14.01,2016-12-08 12:06:00,
2016-12-08 07:11:00,30.3,21.6,0.00,SSW,201,0.0,16.4,70,0.00,,---,0.00,VWS V14.01,2016-12-08 12:11:00,
2016-12-08 07:16:00,30.6,22.0,0.00,SSW,200,5.2,16.4,70,0.00,,---,0.00,VWS V14.01,2016-12-08 12:16:00,
2016-12-08 07:21:00,30.5,21.9,0.00,SSW,194,0.0,16.4,70,0.00,,---,0.00,VWS V14.01,2016-12-08 12:21:00,
2016-12-08 07:27:00,30.4,21.9,0.00,SW,229,8.4,10.3,70,0.00,,---,0.00,VWS V14.01,2016-12-08 12:27:00,
2016-12-08 07:32:00,30.5,22.1,0.00,SSW,205,6.0,10.3,70,0.00,,---,0.00,VWS V14.01,2016-12-08 12:32:00,
2016-12-08 07:37:00,30.6,22.3,0.00,SSW,197,5.6,13.6,71,0.00,,---,0.00,VWS V14.01,2016-12-08 12:37:00,
2016-12-08 07:42:00,30.3,22.0,0.00,SSW,201,4.3,13.6,71,0.00,,---,0.00,VWS V14.01,2016-12-08 12:42:00,
2016-12-08 07:47:00,30.2,22.0,0.00,SSW,208,6.2,15.7,71,0.00,,---,0.00,VWS V14.01,2016-12-08 12:47:00,
2016-12-08 07:52:00,30.2,22.0,0.00,SW,225,7.1,18.3,71,0.00,,---,0.00,VWS V14.01,2016-12-08 12:52:00,
2016-12-08 07:57:00,30.2,22.0,0.00,SSW,193,7.1,18.3,71,0.00,,---,0.00,VWS V14.01,2016-12-08 12:57:00,
2016-12-08 08:02:00,30.2,22.2,0.00,SSW,204,10.6,20.9,72,0.00,,---,0.00,VWS V14.01,2016-12-08 13:02:00,
2016-12-08 08:07:00,30.0,22.0,0.00,South,183,0.0,20.9,72,0.00,,---,0.00,VWS V14.01,2016-12-08 13:07:00,
2016-12-08 08:12:00,30.2,22.2,0.00,SW,222,1.7,20.9,72,0.00,,---,0.00,VWS V14.01,2016-12-08 13:12:00,
2016-12-08 08:17:00,30.4,22.4,0.00,SSW,201,0.0,20.9,72,0.00,,---,0.00,VWS V14.01,2016-12-08 13:17:00,
2016-12-08 08:22:00,30.3,22.2,0.00,SSW,212,0.0,20.9,72,0.00,,---,0.00,VWS V14.01,2016-12-08 13:22:00,